Flight Track Log - Related Links

Times and Time Zones

All times are in EDT time to prevent confusion due to time zone crossing. See the N724AE flight status page for this flight to view local times or setup timezone preferences in your user account.


Time Position Orientation Groundspeed Altitude Reporting Facility
EDT Latitude Longitude Course Direction KTS MPH feet Rate Location/Type
Mon 01:03:17 PM 39.0333 -84.6667 208° Southwest 163 188 1,400  Level Cincinnati TRACON
Mon 01:04:35 PM 38.9667 -84.6833 191° South 191 220 4,800 2,656 Climbing Cincinnati TRACON
Mon 01:05:00 PM 38.7907 -84.7528 210° Southwest  Level FlightAware Approximate
Mon 01:06:00 PM 38.7130 -84.8111 210° Southwest  Level FlightAware Approximate
Mon 01:06:20 PM 38.8917 -84.7281 205° Southwest 196 226 9,500  Level Indianapolis Center
Mon 01:07:00 PM 38.6339 -84.8663 208° Southwest  Level FlightAware Approximate
Mon 01:07:22 PM 38.8328 -84.7642 206° Southwest 231 266 10,200  Level Indianapolis Center
Mon 01:08:00 PM 38.5540 -84.9196 208° Southwest  Level FlightAware Approximate
Mon 01:08:23 PM 38.7514 -84.8153 206° Southwest 317 365 10,600  Level Indianapolis Center
Mon 01:09:25 PM 38.6636 -84.8672 205° Southwest 339 390 11,900 1,210 Climbing Indianapolis Center
Mon 01:10:27 PM 38.5728 -84.9225 205° Southwest 352 405 13,100 1,258 Climbing Indianapolis Center
Mon 01:11:29 PM 38.4653 -84.9869 205° Southwest 364 419 14,500 1,317 Climbing Indianapolis Center
Mon 01:12:30 PM 38.3689 -85.0358 202° Southwest 370 426 15,800 1,220 Climbing Indianapolis Center
Mon 01:13:32 PM 38.3006 -85.1222 225° Southwest 353 406 17,000 1,210 Climbing Indianapolis Center
Mon 01:14:34 PM 38.2508 -85.2381 241° Southwest 361 415 18,300 1,171 Climbing Indianapolis Center
Mon 01:15:35 PM 38.2028 -85.3497 241° Southwest 358 412 19,400 1,073 Climbing Indianapolis Center
Mon 01:16:37 PM 38.1522 -85.4653 241° Southwest 370 426 20,500 1,024 Climbing Indianapolis Center
Mon 01:17:38 PM 38.1017 -85.5819 241° Southwest 374 430 21,500 976 Climbing Indianapolis Center
Mon 01:18:40 PM 38.0461 -85.7006 239° Southwest 384 442 22,500 968 Climbing Indianapolis Center
Mon 01:19:42 PM 37.9911 -85.8175 239° Southwest 385 443 23,500 1,024 Climbing Indianapolis Center
Mon 01:20:43 PM 37.9347 -85.9364 239° Southwest 390 449 24,600 1,024 Climbing Indianapolis Center
Mon 01:21:45 PM 37.8792 -86.0528 239° Southwest 385 443 25,600 1,073 Climbing Indianapolis Center
Mon 01:22:46 PM 37.8122 -86.1911 239° Southwest 383 441 26,800 1,024 Climbing Indianapolis Center
Mon 01:23:48 PM 37.7650 -86.2908 239° Southwest 379 436 27,700 1,024 Climbing Indianapolis Center
Mon 01:24:49 PM 37.7019 -86.4208 239° Southwest 372 428 28,900 1,122 Climbing Indianapolis Center
Mon 01:25:51 PM 37.6478 -86.5336 239° Southwest 371 427 30,000 1,024 Climbing Indianapolis Center
Mon 01:26:52 PM 37.5961 -86.6403 239° Southwest 368 423 31,000 976 Climbing Indianapolis Center
Mon 01:27:54 PM 37.5414 -86.7522 238° Southwest 371 427 32,000 1,024 Climbing Indianapolis Center
Mon 01:28:55 PM 37.4850 -86.8686 239° Southwest 373 429 33,100 1,024 Climbing Indianapolis Center
Mon 01:29:57 PM 37.4306 -86.9786 238° Southwest 370 426 34,100 1,122 Climbing Indianapolis Center
Mon 01:30:58 PM 37.3767 -87.0903 239° Southwest 371 427 35,400 958 Climbing Indianapolis Center
Mon 01:31:56 PM 37.3189 -87.2064 238° Southwest 373 429 36,000 305 Climbing Memphis Center
Mon 01:32:56 PM 37.2653 -87.3156 238° Southwest 378 435 36,000  Level Memphis Center
Mon 01:33:56 PM 37.2139 -87.4242 239° Southwest 378 435 36,000  Level Memphis Center
Mon 01:34:56 PM 37.1561 -87.5356 237° Southwest 378 435 36,000  Level Memphis Center
Mon 01:35:56 PM 37.1022 -87.6442 238° Southwest 378 435 36,000  Level Memphis Center
Mon 01:36:56 PM 37.0461 -87.7553 238° Southwest 378 435 36,000  Level Memphis Center
Mon 01:37:56 PM 36.9942 -87.8633 239° Southwest 378 435 36,000  Level Memphis Center
Mon 01:38:56 PM 36.9403 -87.9717 238° Southwest 378 435 36,000  Level Memphis Center
Mon 01:39:56 PM 36.8839 -88.0769 236° Southwest 373 429 36,000  Level Memphis Center
Mon 01:40:56 PM 36.8397 -88.1717 240° Southwest 368 423 36,000  Level Memphis Center
Mon 01:41:56 PM 36.7831 -88.2819 237° Southwest 368 423 36,000  Level Memphis Center
Mon 01:42:56 PM 36.7267 -88.3894 237° Southwest 368 423 36,000  Level Memphis Center
Mon 01:43:56 PM 36.6719 -88.4994 238° Southwest 368 423 36,000  Level Memphis Center
Mon 01:44:56 PM 36.6172 -88.6067 238° Southwest 368 423 36,000  Level Memphis Center
Mon 01:45:56 PM 36.5603 -88.7139 237° Southwest 373 429 36,000  Level Memphis Center
Mon 01:46:56 PM 36.4972 -88.8314 236° Southwest 373 429 36,000  Level Memphis Center
Mon 01:47:56 PM 36.4422 -88.9408 238° Southwest 378 435 36,000  Level Memphis Center
Mon 01:48:56 PM 36.3850 -89.0447 236° Southwest 378 435 36,000  Level Memphis Center
Mon 01:49:56 PM 36.3236 -89.1539 235° Southwest 378 435 36,000  Level Memphis Center
Mon 01:50:56 PM 36.2642 -89.2681 237° Southwest 384 442 36,000  Level Memphis Center
Mon 01:51:56 PM 36.2047 -89.3822 237° Southwest 389 448 36,000  Level Memphis Center
Mon 01:52:56 PM 36.1492 -89.4908 238° Southwest 395 455 36,000  Level Memphis Center
Mon 01:53:56 PM 36.0936 -89.5992 238° Southwest 395 455 36,000  Level Memphis Center
Mon 01:54:56 PM 36.0422 -89.6972 237° Southwest 395 455 36,000  Level Memphis Center
Mon 01:55:56 PM 35.9842 -89.8056 237° Southwest 395 455 36,000  Level Memphis Center
Mon 01:56:56 PM 35.9242 -89.9161 236° Southwest 395 455 36,000  Level Memphis Center
Mon 01:57:56 PM 35.8661 -90.0239 236° Southwest 395 455 36,000  Level Memphis Center
Mon 01:58:56 PM 35.8103 -90.1317 237° Southwest 395 455 36,000  Level Memphis Center
Mon 01:59:56 PM 35.7519 -90.2419 237° Southwest 395 455 36,000  Level Memphis Center
Mon 02:00:56 PM 35.6894 -90.3494 234° Southwest 395 455 36,000  Level Memphis Center
Mon 02:01:56 PM 35.6436 -90.4567 242° Southwest 374 430 36,000  Level Memphis Center
Mon 02:02:56 PM 35.5975 -90.5742 244° Southwest 382 440 36,000  Level Memphis Center
Mon 02:03:56 PM 35.5492 -90.6914 243° Southwest 382 440 36,000  Level Memphis Center
Mon 02:04:56 PM 35.5008 -90.8058 243° Southwest 388 447 36,000  Level Memphis Center
Mon 02:05:56 PM 35.4503 -90.9253 243° Southwest 388 447 36,000  Level Memphis Center
Mon 02:06:56 PM 35.4019 -91.0397 243° Southwest 381 438 36,000  Level Memphis Center
Mon 02:07:56 PM 35.3489 -91.1667 243° Southwest 381 438 36,000  Level Memphis Center
Mon 02:08:56 PM 35.2981 -91.2831 242° Southwest 381 438 36,000  Level Memphis Center
Mon 02:09:56 PM 35.2472 -91.4019 242° Southwest 387 445 36,000  Level Memphis Center
Mon 02:10:56 PM 35.1981 -91.5158 242° Southwest 387 445 36,000  Level Memphis Center
Mon 02:11:56 PM 35.1469 -91.6344 242° Southwest 392 451 36,000  Level Memphis Center
Mon 02:12:56 PM 35.0997 -91.7506 244° Southwest 392 451 36,000  Level Memphis Center
Mon 02:13:56 PM 35.0506 -91.8639 242° Southwest 387 445 36,000  Level Memphis Center
Mon 02:14:56 PM 34.9989 -91.9819 242° Southwest 387 445 36,000  Level Memphis Center
Mon 02:15:56 PM 34.9472 -92.1000 242° Southwest 387 445 36,000  Level Memphis Center
Mon 02:16:56 PM 34.8975 -92.2156 242° Southwest 387 445 36,000  Level Memphis Center
Mon 02:17:56 PM 34.8456 -92.3358 242° Southwest 387 445 36,000  Level Memphis Center
Mon 02:18:56 PM 34.7958 -92.4486 242° Southwest 387 445 36,000  Level Memphis Center
Mon 02:19:56 PM 34.7439 -92.5661 242° Southwest 387 445 36,000  Level Memphis Center
Mon 02:20:56 PM 34.6939 -92.6783 242° Southwest 387 445 36,000  Level Memphis Center
Mon 02:21:56 PM 34.6481 -92.7806 241° Southwest 387 445 36,000  Level Memphis Center
Mon 02:22:56 PM 34.5978 -92.8928 241° Southwest 387 445 36,000  Level Memphis Center
Mon 02:23:56 PM 34.5472 -93.0122 243° Southwest 392 451 36,000  Level Memphis Center
Mon 02:24:56 PM 34.4947 -93.1242 240° Southwest 392 451 36,000  Level Memphis Center
Mon 02:25:56 PM 34.4422 -93.2383 241° Southwest 386 444 36,000  Level Memphis Center
Mon 02:28:20 PM 34.3239 -93.5208 243° Southwest 391 450 36,000  Level Fort Worth Center
Mon 02:29:20 PM 34.2858 -93.6433 249° West 397 457 36,000  Level Fort Worth Center
Mon 02:30:20 PM 34.2539 -93.7678 253° West 397 457 36,000  Level Fort Worth Center
Mon 02:31:20 PM 34.2178 -93.8922 251° West 392 451 36,000  Level Fort Worth Center
Mon 02:32:20 PM 34.1839 -94.0167 252° West 392 451 36,000  Level Fort Worth Center
Mon 02:33:20 PM 34.1475 -94.1411 251° West 392 451 36,000  Level Fort Worth Center
Mon 02:34:20 PM 34.1131 -94.2653 252° West 392 451 36,000 -250 Level Fort Worth Center
Mon 02:35:20 PM 34.0806 -94.3844 252° West 392 451 35,500 -750 Descending Fort Worth Center
Mon 02:36:20 PM 34.0439 -94.5083 250° West 392 451 34,500 -1,400 Descending Fort Worth Center
Mon 02:37:20 PM 34.0092 -94.6322 251° West 392 451 32,700 -2,300 Descending Fort Worth Center
Mon 02:38:20 PM 33.9722 -94.7589 251° West 392 451 29,900 -2,900 Descending Fort Worth Center
Mon 02:39:20 PM 33.9350 -94.8875 251° West 397 457 26,900 -2,750 Descending Fort Worth Center
Mon 02:40:20 PM 33.8958 -95.0189 250° West 411 473 24,400 -1,450 Descending Fort Worth Center
Mon 02:41:20 PM 33.8586 -95.1475 251° West 411 473 24,000 -200 Descending Fort Worth Center
Mon 02:42:20 PM 33.8214 -95.2733 250° West 406 467 24,000  Level Fort Worth Center
Mon 02:43:20 PM 33.7858 -95.3967 251° West 406 467 24,000 -650 Level Fort Worth Center
Mon 02:44:20 PM 33.7481 -95.5225 250° West 406 467 22,700 -1,700 Descending Fort Worth Center
Mon 02:45:20 PM 33.7083 -95.6581 251° West 406 467 20,600 -2,100 Descending Fort Worth Center
Mon 02:46:20 PM 33.6744 -95.7786 251° West 394 453 18,500 -2,200 Descending Fort Worth Center
Mon 02:47:20 PM 33.6383 -95.8992 250° West 387 445 16,200 -2,000 Descending Fort Worth Center
Mon 02:48:20 PM 33.6042 -96.0119 250° West 375 432 14,500 -1,500 Descending Fort Worth Center
Mon 02:49:20 PM 33.5719 -96.1147 249° West 370 426 13,200 -1,300 Descending Fort Worth Center
Mon 02:50:20 PM 33.5314 -96.2397 249° West 375 432 11,900 -1,100 Descending Fort Worth Center
Mon 02:51:20 PM 33.4797 -96.3053 227° Southwest 332 382 11,000 -450 Descending Fort Worth Center
Mon 02:52:20 PM 33.4197 -96.3756 224° Southwest 288 331 11,000  Level Fort Worth Center
Mon 02:53:20 PM 33.3703 -96.4333 224° Southwest 278 320 11,000 -1,150 Level Fort Worth Center
Mon 02:54:20 PM 33.3164 -96.5061 228° Southwest 273 314 8,700 -2,100 Descending Fort Worth Center
Mon 02:55:20 PM 33.3025 -96.5958 260° West 268 308 6,800 -1,700 Descending Fort Worth Center
Mon 02:56:20 PM 33.2883 -96.6703 257° West 268 308 5,300 -900 Descending Fort Worth Center
Mon 02:57:20 PM 33.2764 -96.7625 261° West 258 297 5,000 -150 Descending Fort Worth Center
Mon 02:58:20 PM 33.2433 -96.8197 235° Southwest 243 280 5,000  Level Fort Worth Center
Mon 02:59:20 PM 33.2017 -96.8919 235° Southwest 262 302 5,000  Level Fort Worth Center
Mon 03:00:20 PM 33.1583 -96.9692 236° Southwest 267 307 5,000 -350 Level Fort Worth Center
Mon 03:01:20 PM 33.1167 -97.0142 222° Southwest 244 281 4,300 -850 Descending Fort Worth Center
Mon 03:02:20 PM 33.0625 -97.0267 191° South 195 224 3,300 -900 Descending Fort Worth Center
Mon 03:03:20 PM 33.0186 -97.0269 180° South 170 196 2,500 -800 Descending Fort Worth Center

Login

Don't have an account? Register now (free) for customized features, flight alerts, and more!